createdAt,value
2017-12-28T00:01:49.483Z,11.77
2017-12-28T00:04:18.751Z,15.50
2017-12-28T00:06:46.995Z,14.70
2017-12-28T00:09:15.267Z,17.40
2017-12-28T00:11:43.554Z,20.90
2017-12-28T00:14:11.780Z,17.93
2017-12-28T00:16:40.116Z,20.23
2017-12-28T00:19:08.390Z,23.17
2017-12-28T00:21:36.670Z,21.97
2017-12-28T00:24:05.005Z,23.97
2017-12-28T00:26:34.052Z,21.20
2017-12-28T00:29:03.274Z,21.13
2017-12-28T00:31:31.517Z,19.17
2017-12-28T00:34:01.429Z,16.10
2017-12-28T00:36:30.563Z,10.87
2017-12-28T00:38:58.851Z,10.40
2017-12-28T00:41:27.905Z,8.80
2017-12-28T00:43:56.167Z,9.63
2017-12-28T00:46:24.434Z,7.17
2017-12-28T00:48:53.645Z,6.63
2017-12-28T00:51:22.840Z,4.93
2017-12-28T00:53:51.074Z,5.30
2017-12-28T00:56:20.112Z,5.20
2017-12-28T00:58:49.579Z,5.07
2017-12-28T01:01:20.047Z,4.97
2017-12-28T01:03:48.294Z,4.77
2017-12-28T01:06:18.250Z,4.57
2017-12-28T01:08:46.498Z,4.40
2017-12-28T01:11:15.669Z,4.60
2017-12-28T01:13:44.666Z,4.43
2017-12-28T01:16:13.764Z,4.40
2017-12-28T01:18:42.809Z,4.13
2017-12-28T01:21:11.922Z,3.60
2017-12-28T01:23:40.172Z,5.50
2017-12-28T01:26:09.344Z,4.33
2017-12-28T01:28:38.380Z,6.30
2017-12-28T01:31:07.306Z,5.27
2017-12-28T01:33:36.253Z,6.33
2017-12-28T01:36:04.883Z,6.10
2017-12-28T01:38:33.885Z,5.70
2017-12-28T01:41:02.126Z,7.17
2017-12-28T01:43:30.665Z,5.93
2017-12-28T01:45:59.736Z,6.07
2017-12-28T01:48:28.014Z,7.37
2017-12-28T01:50:56.286Z,6.77
2017-12-28T01:53:25.435Z,6.57
2017-12-28T01:55:53.695Z,7.00
2017-12-28T01:58:22.052Z,6.07
2017-12-28T02:00:50.313Z,5.47
2017-12-28T02:03:18.563Z,5.50
2017-12-28T02:05:46.842Z,5.00
2017-12-28T02:08:15.084Z,4.80
2017-12-28T02:10:43.830Z,4.50
2017-12-28T02:13:12.100Z,3.47
2017-12-28T02:15:40.345Z,4.30
2017-12-28T02:18:09.695Z,3.60
2017-12-28T02:20:37.942Z,3.80
2017-12-28T02:23:06.181Z,3.70
2017-12-28T02:25:34.454Z,4.07
2017-12-28T02:28:03.450Z,3.07
2017-12-28T02:30:31.822Z,3.70
2017-12-28T02:33:00.073Z,3.40
2017-12-28T02:35:28.542Z,3.20
2017-12-28T02:37:56.782Z,3.63
2017-12-28T02:40:25.063Z,2.70
2017-12-28T02:42:53.313Z,3.70
2017-12-28T02:45:22.461Z,5.23
2017-12-28T02:47:50.721Z,5.07
2017-12-28T02:50:18.944Z,5.10
2017-12-28T02:52:47.227Z,6.00
2017-12-28T02:55:15.467Z,4.90
2017-12-28T02:57:43.715Z,5.97
2017-12-28T03:00:11.965Z,5.40
2017-12-28T03:02:40.241Z,5.33
2017-12-28T03:05:08.480Z,6.23
2017-12-28T03:07:36.757Z,5.23
2017-12-28T03:10:05.011Z,5.43
2017-12-28T03:12:33.722Z,5.50
2017-12-28T03:15:01.986Z,4.80
2017-12-28T03:17:30.694Z,6.30
2017-12-28T03:19:59.518Z,5.30
2017-12-28T03:22:29.635Z,5.30
2017-12-28T03:24:58.666Z,4.87
2017-12-28T03:27:26.915Z,5.80
2017-12-28T03:29:55.955Z,6.93
2017-12-28T03:32:24.243Z,5.27
2017-12-28T03:34:52.464Z,5.30
2017-12-28T03:37:21.490Z,4.83
2017-12-28T03:39:50.313Z,6.47
2017-12-28T03:42:18.584Z,5.80
2017-12-28T03:44:47.694Z,5.90
2017-12-28T03:47:15.938Z,6.77
2017-12-28T03:49:44.204Z,5.97
2017-12-28T03:52:12.474Z,5.60
2017-12-28T03:54:40.737Z,6.80
2017-12-28T03:57:10.468Z,5.87
2017-12-28T03:59:39.206Z,6.53
2017-12-28T04:02:07.462Z,6.63
2017-12-28T04:04:35.740Z,6.53
2017-12-28T04:07:03.992Z,7.27
2017-12-28T04:09:32.973Z,7.13
2017-12-28T04:12:01.739Z,7.97
2017-12-28T04:14:30.031Z,7.07
2017-12-28T04:16:58.261Z,6.90
2017-12-28T04:19:26.590Z,7.50
2017-12-28T04:21:56.909Z,6.57
2017-12-28T04:24:26.786Z,7.37
2017-12-28T04:26:55.087Z,6.77
2017-12-28T04:29:23.380Z,6.23
2017-12-28T04:31:52.483Z,7.47
2017-12-28T04:34:21.737Z,8.30
2017-12-28T04:36:49.965Z,7.73
2017-12-28T04:39:18.216Z,6.77
2017-12-28T04:41:46.553Z,7.80
2017-12-28T04:44:14.806Z,7.77
2017-12-28T04:46:43.040Z,8.60
2017-12-28T04:49:11.351Z,8.23
2017-12-28T04:51:39.604Z,7.83
2017-12-28T04:54:08.690Z,7.50
2017-12-28T04:56:36.948Z,8.50
2017-12-28T04:59:05.318Z,7.83
2017-12-28T05:01:33.575Z,7.60
2017-12-28T05:04:02.698Z,9.73
2017-12-28T05:06:30.941Z,9.03
2017-12-28T05:08:59.300Z,9.20
2017-12-28T05:11:27.724Z,8.87
2017-12-28T05:13:56.012Z,9.17
2017-12-28T05:16:25.123Z,10.03
2017-12-28T05:18:53.840Z,9.40
2017-12-28T05:21:23.701Z,10.10
2017-12-28T05:23:52.693Z,10.00
2017-12-28T05:26:25.104Z,9.70
2017-12-28T05:28:53.763Z,11.10
2017-12-28T05:31:23.640Z,8.90
2017-12-28T05:33:53.133Z,9.63
2017-12-28T05:36:22.212Z,10.17
2017-12-28T05:38:51.688Z,10.23
2017-12-28T05:41:21.422Z,9.77
2017-12-28T05:43:53.492Z,10.17
2017-12-28T05:46:22.234Z,10.70
2017-12-28T05:48:51.802Z,12.50
2017-12-28T05:51:20.878Z,10.77
2017-12-28T05:53:51.883Z,9.13
2017-12-28T05:56:20.385Z,10.63
2017-12-28T05:58:48.694Z,9.60
2017-12-28T06:01:17.415Z,10.60
2017-12-28T06:03:46.425Z,10.40
2017-12-28T06:06:14.759Z,10.20
2017-12-28T06:08:46.548Z,10.00
2017-12-28T06:11:14.897Z,9.80
2017-12-28T06:13:43.154Z,10.60
2017-12-28T06:16:12.247Z,8.80
2017-12-28T06:18:40.559Z,10.10
2017-12-28T06:21:09.588Z,8.20
2017-12-28T06:23:38.736Z,11.63
2017-12-28T06:26:09.518Z,9.40
2017-12-28T06:28:38.804Z,9.77
2017-12-28T06:31:08.941Z,10.17
2017-12-28T06:33:37.943Z,9.57
2017-12-28T06:36:06.872Z,9.63
2017-12-28T06:38:35.921Z,8.57
2017-12-28T06:41:05.791Z,9.30
2017-12-28T06:43:35.078Z,10.37
2017-12-28T06:46:03.992Z,9.70
2017-12-28T06:48:32.264Z,10.83
2017-12-28T06:51:03.802Z,9.20
2017-12-28T06:53:32.101Z,8.33
2017-12-28T06:56:00.364Z,8.90
2017-12-28T06:58:30.813Z,9.20
2017-12-28T07:00:59.857Z,9.30
2017-12-28T07:03:28.753Z,10.40
2017-12-28T07:05:57.032Z,10.03
2017-12-28T07:08:25.357Z,9.63
2017-12-28T07:10:54.584Z,11.37
2017-12-28T07:13:24.049Z,12.30
2017-12-28T07:15:53.163Z,9.30
2017-12-28T07:18:21.471Z,10.50
2017-12-28T07:20:49.735Z,8.97
2017-12-28T07:23:18.748Z,8.77
2017-12-28T07:25:47.015Z,10.30
2017-12-28T07:28:16.222Z,9.50
2017-12-28T07:30:45.225Z,9.63
2017-12-28T07:33:14.712Z,11.67
2017-12-28T07:35:43.691Z,9.30
2017-12-28T07:38:12.770Z,10.03
2017-12-28T07:40:41.185Z,10.73
2017-12-28T07:43:10.180Z,11.37
2017-12-28T07:45:38.457Z,8.30
2017-12-28T07:48:06.777Z,7.40
2017-12-28T07:50:35.058Z,7.43
2017-12-28T07:53:03.337Z,9.03
2017-12-28T07:55:32.093Z,6.83
2017-12-28T07:58:00.409Z,6.10
2017-12-28T08:00:28.677Z,7.07
2017-12-28T08:02:57.914Z,6.90
2017-12-28T08:05:27.024Z,8.60
2017-12-28T08:07:56.075Z,9.60
2017-12-28T08:10:24.328Z,9.13
2017-12-28T08:12:52.630Z,10.70
2017-12-28T08:15:20.910Z,10.00
2017-12-28T08:17:50.143Z,11.67
2017-12-28T08:20:19.062Z,10.90
2017-12-28T08:22:48.551Z,11.10
2017-12-28T08:25:17.790Z,10.40
2017-12-28T08:27:46.839Z,9.60
2017-12-28T08:30:15.159Z,9.13
2017-12-28T08:32:44.066Z,10.57
2017-12-28T08:35:12.342Z,10.97
2017-12-28T08:37:41.542Z,11.50
2017-12-28T08:40:09.822Z,8.90
2017-12-28T08:42:38.174Z,10.03
2017-12-28T08:45:06.483Z,9.70
2017-12-28T08:47:34.743Z,9.60
2017-12-28T08:50:03.010Z,10.57
2017-12-28T08:52:31.288Z,11.33
2017-12-28T08:54:59.683Z,9.97
2017-12-28T08:57:28.070Z,10.17
2017-12-28T08:59:57.024Z,11.73
2017-12-28T09:02:25.609Z,9.90
2017-12-28T09:04:55.543Z,8.77
2017-12-28T09:07:25.513Z,9.90
2017-12-28T09:09:54.677Z,9.80
2017-12-28T09:12:22.947Z,9.83
2017-12-28T09:14:51.721Z,10.73
2017-12-28T09:17:20.035Z,9.70
2017-12-28T09:19:48.323Z,9.30
2017-12-28T09:22:17.944Z,8.37
2017-12-28T09:24:49.079Z,10.03
2017-12-28T09:27:17.289Z,10.13
2017-12-28T09:29:45.687Z,9.73
2017-12-28T09:32:16.570Z,8.70
2017-12-28T09:34:46.047Z,10.77
2017-12-28T09:37:16.301Z,11.30
2017-12-28T09:39:46.167Z,10.80
2017-12-28T09:42:16.362Z,11.67
2017-12-28T09:44:45.409Z,9.00
2017-12-28T09:47:14.715Z,10.20
2017-12-28T09:49:44.501Z,10.90
2017-12-28T09:52:14.671Z,10.63
2017-12-28T09:54:44.514Z,9.10
2017-12-28T09:57:12.794Z,8.37
2017-12-28T09:59:41.967Z,8.20
2017-12-28T10:02:10.235Z,10.13
2017-12-28T10:04:40.942Z,11.13
2017-12-28T10:07:10.200Z,10.20
2017-12-28T10:09:39.223Z,10.40
2017-12-28T10:12:07.572Z,12.87
2017-12-28T10:14:37.369Z,11.33
2017-12-28T10:17:09.362Z,11.53
2017-12-28T10:19:37.725Z,9.87
2017-12-28T10:22:05.992Z,11.20
2017-12-28T10:24:34.368Z,13.07
2017-12-28T10:27:03.196Z,11.63
2017-12-28T10:29:31.553Z,11.80
2017-12-28T10:32:01.549Z,10.90
2017-12-28T10:34:29.862Z,11.63
2017-12-28T10:36:58.144Z,9.83
2017-12-28T10:39:27.054Z,9.77
2017-12-28T10:41:55.948Z,10.57
2017-12-28T10:44:24.677Z,8.90
2017-12-28T10:46:55.926Z,9.13
2017-12-28T10:49:24.256Z,11.17
2017-12-28T10:51:52.582Z,10.03
2017-12-28T10:54:21.883Z,10.50
2017-12-28T10:56:50.734Z,9.63
2017-12-28T10:59:20.684Z,10.60
2017-12-28T11:01:50.692Z,8.93
2017-12-28T11:04:19.396Z,8.60
2017-12-28T11:06:48.032Z,10.43
2017-12-28T11:09:17.225Z,7.80
2017-12-28T11:11:46.282Z,7.70
2017-12-28T11:14:15.692Z,11.67
2017-12-28T11:16:44.058Z,7.43
2017-12-28T11:19:13.166Z,8.87
2017-12-28T11:21:42.716Z,8.30
2017-12-28T11:24:11.488Z,8.67
2017-12-28T11:26:40.551Z,8.10
2017-12-28T11:29:12.945Z,6.37
2017-12-28T11:31:43.860Z,7.43
2017-12-28T11:34:12.922Z,6.97
2017-12-28T11:36:42.034Z,7.60
2017-12-28T11:39:10.947Z,7.43
2017-12-28T11:41:40.189Z,7.43
2017-12-28T11:44:09.824Z,10.07
2017-12-28T11:46:39.734Z,6.77
2017-12-28T11:49:10.653Z,8.63
2017-12-28T11:51:44.898Z,6.50
2017-12-28T11:54:13.274Z,6.33
2017-12-28T11:56:41.594Z,7.53
2017-12-28T11:59:17.553Z,6.63
2017-12-28T12:02:05.857Z,6.50
2017-12-28T12:04:39.776Z,10.07
2017-12-28T12:07:17.986Z,5.50
2017-12-28T12:09:51.297Z,6.93
2017-12-28T12:12:36.880Z,6.00
2017-12-28T12:15:05.918Z,6.10
2017-12-28T12:17:35.080Z,5.90
2017-12-28T12:20:03.887Z,6.50
2017-12-28T12:22:33.580Z,6.77
2017-12-28T12:25:04.244Z,5.70
2017-12-28T12:27:34.191Z,5.17
2017-12-28T12:30:03.986Z,6.20
2017-12-28T12:32:34.493Z,6.50
2017-12-28T12:35:03.650Z,5.60
2017-12-28T12:37:33.245Z,6.40
2017-12-28T12:40:01.637Z,5.60
2017-12-28T12:42:32.788Z,5.17
2017-12-28T12:45:03.824Z,6.63
2017-12-28T12:47:33.261Z,5.07
2017-12-28T12:50:03.255Z,6.00
2017-12-28T12:52:32.425Z,6.30
2017-12-28T12:55:01.167Z,6.17
2017-12-28T12:57:31.165Z,4.80
2017-12-28T13:00:00.516Z,5.87
2017-12-28T13:02:30.004Z,4.67
2017-12-28T13:05:00.531Z,4.70
2017-12-28T13:07:29.318Z,5.93
2017-12-28T13:09:57.598Z,6.13
2017-12-28T13:12:29.442Z,5.33
2017-12-28T13:14:59.987Z,6.00
2017-12-28T13:17:29.544Z,5.40
2017-12-28T13:19:58.888Z,5.07
2017-12-28T13:22:27.762Z,6.27
2017-12-28T13:24:57.090Z,5.77
2017-12-28T13:27:29.533Z,4.80
2017-12-28T13:29:59.225Z,6.70
2017-12-28T13:32:28.527Z,4.10
2017-12-28T13:34:58.386Z,4.27
2017-12-28T13:37:26.709Z,4.60
2017-12-28T13:39:56.325Z,4.10
2017-12-28T13:42:25.791Z,5.97
2017-12-28T13:44:55.399Z,5.00
2017-12-28T13:47:23.779Z,4.70
2017-12-28T13:49:52.851Z,4.33
2017-12-28T13:52:23.502Z,4.43
2017-12-28T13:54:53.803Z,4.73
2017-12-28T13:57:25.708Z,3.50
2017-12-28T13:59:55.840Z,4.70
2017-12-28T14:02:24.713Z,4.00
2017-12-28T14:04:57.184Z,4.00
2017-12-28T14:07:29.095Z,4.93
2017-12-28T14:09:58.286Z,5.30
2017-12-28T14:12:28.244Z,4.17
2017-12-28T14:14:57.730Z,5.07
2017-12-28T14:17:28.709Z,4.27
2017-12-28T14:19:57.639Z,4.60
2017-12-28T14:22:26.034Z,3.93
2017-12-28T14:24:56.115Z,4.47
2017-12-28T14:27:26.323Z,4.37
2017-12-28T14:29:54.683Z,4.40
2017-12-28T14:32:24.691Z,3.90
2017-12-28T14:34:54.009Z,4.03
2017-12-28T14:37:23.739Z,3.97
2017-12-28T14:39:53.849Z,3.63
2017-12-28T14:42:23.232Z,3.93
2017-12-28T14:44:51.722Z,3.93
2017-12-28T14:47:20.756Z,4.17
2017-12-28T14:49:49.986Z,4.00
2017-12-28T14:52:18.428Z,4.60
2017-12-28T14:54:48.852Z,4.27
2017-12-28T14:57:18.151Z,4.33
2017-12-28T14:59:46.582Z,4.57
2017-12-28T15:02:15.945Z,4.23
2017-12-28T15:04:45.116Z,5.67
2017-12-28T15:07:15.142Z,4.57
2017-12-28T15:09:44.628Z,4.23
2017-12-28T15:12:17.063Z,4.87
2017-12-28T15:14:46.036Z,5.00
2017-12-28T15:17:14.888Z,6.10
2017-12-28T15:19:45.067Z,4.53
2017-12-28T15:22:13.382Z,5.57
2017-12-28T15:24:41.887Z,3.50
2017-12-28T15:27:10.947Z,4.80
2017-12-28T15:29:40.217Z,4.73
2017-12-28T15:32:09.389Z,5.20
2017-12-28T15:34:38.231Z,5.40
2017-12-28T15:37:08.832Z,5.13
2017-12-28T15:39:38.413Z,7.17
2017-12-28T15:42:09.599Z,6.27
2017-12-28T15:44:38.735Z,4.70
2017-12-28T15:47:08.832Z,6.10
2017-12-28T15:49:38.294Z,5.30
2017-12-28T15:52:10.574Z,6.07
2017-12-28T15:54:40.795Z,6.60
2017-12-28T15:57:10.126Z,5.47
2017-12-28T15:59:40.192Z,6.67
2017-12-28T16:02:11.036Z,6.30
2017-12-28T16:04:40.636Z,7.13
2017-12-28T16:07:09.035Z,8.40
2017-12-28T16:09:37.387Z,6.70
2017-12-28T16:12:08.651Z,5.60
2017-12-28T16:14:38.106Z,6.50
2017-12-28T16:17:06.396Z,6.00
2017-12-28T16:19:34.876Z,7.43
2017-12-28T16:22:04.685Z,4.70
2017-12-28T16:24:33.704Z,7.40
2017-12-28T16:27:02.016Z,6.93
2017-12-28T16:29:32.731Z,5.30
2017-12-28T16:32:02.766Z,7.20
2017-12-28T16:34:31.295Z,7.33
2017-12-28T16:37:01.376Z,6.90
2017-12-28T16:39:32.927Z,7.07
2017-12-28T16:42:01.207Z,8.10
2017-12-28T16:44:31.129Z,6.90
2017-12-28T16:47:02.433Z,10.40
2017-12-28T16:49:30.684Z,6.33
2017-12-28T16:51:59.013Z,6.63
2017-12-28T16:54:29.391Z,6.20
2017-12-28T16:56:57.693Z,6.30
2017-12-28T16:59:25.996Z,6.30
2017-12-28T17:01:55.055Z,7.10
2017-12-28T17:04:23.487Z,6.90
2017-12-28T17:06:53.003Z,6.07
2017-12-28T17:09:22.243Z,5.93
2017-12-28T17:11:51.823Z,6.13
2017-12-28T17:14:20.881Z,5.70
2017-12-28T17:16:50.917Z,5.90
2017-12-28T17:19:20.627Z,5.60
2017-12-28T17:21:50.286Z,6.63
2017-12-28T17:24:19.174Z,5.53
2017-12-28T17:26:49.312Z,6.13
2017-12-28T17:29:19.483Z,6.47
2017-12-28T17:31:47.890Z,6.03
2017-12-28T17:34:16.234Z,6.73
2017-12-28T17:36:47.002Z,6.67
2017-12-28T17:39:16.877Z,6.47
2017-12-28T17:41:47.490Z,6.73
2017-12-28T17:44:17.144Z,6.67
2017-12-28T17:46:47.063Z,6.97
2017-12-28T17:49:17.790Z,6.17
2017-12-28T17:51:49.294Z,6.80
2017-12-28T17:54:17.952Z,7.40
2017-12-28T17:56:48.058Z,12.80
2017-12-28T17:59:16.337Z,6.93
2017-12-28T18:01:45.364Z,7.47
2017-12-28T18:04:14.958Z,8.20
2017-12-28T18:06:45.298Z,6.57
2017-12-28T18:09:15.244Z,6.30
2017-12-28T18:11:44.100Z,6.40
2017-12-28T18:14:14.207Z,6.90
2017-12-28T18:16:44.966Z,9.67
2017-12-28T18:19:14.031Z,7.63
2017-12-28T18:21:43.265Z,8.13
2017-12-28T18:24:12.193Z,11.00
2017-12-28T18:26:40.585Z,8.83
2017-12-28T18:29:09.205Z,7.30
2017-12-28T18:31:38.216Z,9.10
2017-12-28T18:34:06.625Z,6.80
2017-12-28T18:36:37.209Z,8.80
2017-12-28T18:39:06.813Z,8.87
2017-12-28T18:41:35.143Z,9.20
2017-12-28T18:44:04.024Z,8.50
2017-12-28T18:46:32.357Z,9.20
2017-12-28T18:49:01.460Z,8.37
2017-12-28T18:51:30.419Z,9.20
2017-12-28T18:54:00.280Z,9.03
2017-12-28T18:56:29.423Z,9.90
2017-12-28T18:58:58.255Z,9.07
2017-12-28T19:01:27.013Z,9.17
2017-12-28T19:03:55.343Z,9.13
2017-12-28T19:06:25.197Z,9.03
2017-12-28T19:08:54.283Z,10.80
2017-12-28T19:11:23.238Z,8.73
2017-12-28T19:13:52.371Z,11.63
2017-12-28T19:16:21.846Z,9.40
2017-12-28T19:18:51.427Z,9.33
2017-12-28T19:21:21.177Z,11.13
2017-12-28T19:23:53.700Z,9.20
2017-12-28T19:26:23.241Z,8.73
2017-12-28T19:28:53.084Z,8.90
2017-12-28T19:31:22.444Z,10.20
2017-12-28T19:33:52.007Z,9.50
2017-12-28T19:36:22.064Z,7.90
2017-12-28T19:38:52.764Z,8.27
2017-12-28T19:41:23.610Z,9.37
2017-12-28T19:43:52.391Z,8.67
2017-12-28T19:46:21.274Z,7.83
2017-12-28T19:48:51.274Z,8.30
2017-12-28T19:51:21.009Z,8.60
2017-12-28T19:53:52.061Z,7.40
2017-12-28T19:56:22.645Z,9.33
2017-12-28T19:58:52.087Z,8.30
2017-12-28T20:01:20.410Z,7.77
2017-12-28T20:03:50.643Z,8.53
2017-12-28T20:06:19.273Z,9.00
2017-12-28T20:08:48.376Z,8.13
2017-12-28T20:11:16.777Z,8.67
2017-12-28T20:13:46.074Z,9.30
2017-12-28T20:16:16.196Z,9.70
2017-12-28T20:18:46.443Z,7.43
2017-12-28T20:21:16.429Z,8.03
2017-12-28T20:23:45.327Z,9.97
2017-12-28T20:26:14.816Z,11.47
2017-12-28T20:28:43.226Z,10.27
2017-12-28T20:31:13.038Z,9.90
2017-12-28T20:33:42.963Z,11.80
2017-12-28T20:36:12.953Z,9.40
2017-12-28T20:38:41.314Z,9.70
2017-12-28T20:41:10.146Z,10.27
2017-12-28T20:43:39.678Z,8.10
2017-12-28T20:46:08.315Z,9.47
2017-12-28T20:48:36.748Z,7.67
2017-12-28T20:51:05.994Z,8.67
2017-12-28T20:53:35.199Z,8.90
2017-12-28T20:56:03.610Z,9.23
2017-12-28T20:58:33.170Z,9.70
2017-12-28T21:01:03.820Z,9.93
2017-12-28T21:03:33.329Z,8.80
2017-12-28T21:06:02.807Z,9.77
2017-12-28T21:08:32.741Z,9.50
2017-12-28T21:11:01.939Z,9.30
2017-12-28T21:13:30.532Z,9.00
2017-12-28T21:16:00.738Z,10.70
2017-12-28T21:18:30.885Z,9.20
2017-12-28T21:20:59.330Z,10.73
2017-12-28T21:23:28.036Z,11.13
2017-12-28T21:25:59.503Z,10.17
2017-12-28T21:28:27.923Z,10.17
2017-12-28T21:30:56.560Z,10.33
2017-12-28T21:33:25.693Z,9.50
2017-12-28T21:35:54.309Z,10.10
2017-12-28T21:38:25.184Z,9.63
2017-12-28T21:40:55.567Z,11.00
2017-12-28T21:43:24.802Z,11.20
2017-12-28T21:45:54.353Z,9.33
2017-12-28T21:48:24.023Z,9.07
2017-12-28T21:50:53.409Z,9.43
2017-12-28T21:53:22.736Z,22.40
2017-12-28T21:55:51.464Z,12.33
2017-12-28T21:58:20.513Z,21.50
2017-12-28T22:00:50.446Z,10.70
2017-12-28T22:03:20.846Z,10.20
2017-12-28T22:05:49.441Z,10.77
2017-12-28T22:08:19.061Z,9.77
2017-12-28T22:10:48.393Z,10.50
2017-12-28T22:13:17.609Z,9.50
2017-12-28T22:15:45.903Z,10.03
2017-12-28T22:18:14.186Z,11.80
2017-12-28T22:20:43.624Z,9.50
2017-12-28T22:23:12.058Z,8.87
2017-12-28T22:25:40.341Z,9.70
2017-12-28T22:28:08.853Z,10.10
2017-12-28T22:30:37.133Z,9.97
2017-12-28T22:33:06.454Z,10.93
2017-12-28T22:35:36.051Z,8.87
2017-12-28T22:38:05.331Z,10.20
2017-12-28T22:40:34.544Z,9.80
2017-12-28T22:43:03.656Z,8.60
2017-12-28T22:45:32.833Z,9.63
2017-12-28T22:48:01.234Z,10.67
2017-12-28T22:50:31.993Z,9.90
2017-12-28T22:53:03.125Z,9.20
2017-12-28T22:55:33.774Z,9.87
2017-12-28T22:58:02.707Z,8.20
2017-12-28T23:00:32.065Z,10.27
2017-12-28T23:03:01.529Z,9.60
2017-12-28T23:05:29.791Z,9.70
2017-12-28T23:07:58.037Z,9.03
2017-12-28T23:10:29.026Z,8.47
2017-12-28T23:12:59.035Z,9.50
2017-12-28T23:15:27.295Z,8.90
2017-12-28T23:17:55.618Z,8.60
2017-12-28T23:20:24.655Z,9.37
2017-12-28T23:22:53.874Z,8.47
2017-12-28T23:25:22.165Z,8.50
2017-12-28T23:27:51.325Z,11.63
2017-12-28T23:30:21.423Z,9.80
2017-12-28T23:32:51.783Z,8.73
2017-12-28T23:35:23.067Z,8.07
2017-12-28T23:37:54.113Z,7.70
2017-12-28T23:40:24.122Z,9.23
2017-12-28T23:42:53.714Z,8.67
2017-12-28T23:45:24.967Z,8.70
2017-12-28T23:47:53.836Z,7.73
2017-12-28T23:50:23.942Z,8.77
2017-12-28T23:52:55.237Z,8.07
2017-12-28T23:55:24.922Z,7.47
2017-12-28T23:57:55.995Z,6.80
